sensor_id;sensor_type;location;lat;lon;timestamp;temperature;humidity
56308;DHT22;42217;50.422;7.210;2024-03-22T00:01:44;8.70;99.90
56308;DHT22;42217;50.422;7.210;2024-03-22T00:04:10;8.60;99.90
56308;DHT22;42217;50.422;7.210;2024-03-22T00:06:36;8.50;99.90
56308;DHT22;42217;50.422;7.210;2024-03-22T00:09:01;8.40;99.90
56308;DHT22;42217;50.422;7.210;2024-03-22T00:11:27;8.40;99.90
56308;DHT22;42217;50.422;7.210;2024-03-22T00:13:53;8.40;99.90
56308;DHT22;42217;50.422;7.210;2024-03-22T00:16:18;8.40;99.90
56308;DHT22;42217;50.422;7.210;2024-03-22T00:18:44;8.50;99.90
56308;DHT22;42217;50.422;7.210;2024-03-22T00:21:10;8.50;99.90
56308;DHT22;42217;50.422;7.210;2024-03-22T00:23:35;8.60;99.90
56308;DHT22;42217;50.422;7.210;2024-03-22T00:26:01;8.70;99.90
56308;DHT22;42217;50.422;7.210;2024-03-22T00:28:27;8.70;99.90
56308;DHT22;42217;50.422;7.210;2024-03-22T00:30:52;8.90;99.90
56308;DHT22;42217;50.422;7.210;2024-03-22T00:33:18;8.90;99.90
56308;DHT22;42217;50.422;7.210;2024-03-22T00:35:43;8.80;99.90
56308;DHT22;42217;50.422;7.210;2024-03-22T00:38:09;8.90;99.90
56308;DHT22;42217;50.422;7.210;2024-03-22T00:40:35;8.90;99.90
56308;DHT22;42217;50.422;7.210;2024-03-22T00:43:00;9.10;99.90
56308;DHT22;42217;50.422;7.210;2024-03-22T00:45:26;9.10;99.90
56308;DHT22;42217;50.422;7.210;2024-03-22T00:47:52;9.30;99.90
56308;DHT22;42217;50.422;7.210;2024-03-22T00:50:17;9.50;99.90
56308;DHT22;42217;50.422;7.210;2024-03-22T00:52:43;9.60;99.90
56308;DHT22;42217;50.422;7.210;2024-03-22T00:55:08;9.70;99.90
56308;DHT22;42217;50.422;7.210;2024-03-22T00:57:34;9.70;99.90
56308;DHT22;42217;50.422;7.210;2024-03-22T01:00:00;9.90;99.90
56308;DHT22;42217;50.422;7.210;2024-03-22T01:02:25;9.90;99.90
56308;DHT22;42217;50.422;7.210;2024-03-22T01:04:51;10.10;99.90
56308;DHT22;42217;50.422;7.210;2024-03-22T01:07:17;10.10;99.90
56308;DHT22;42217;50.422;7.210;2024-03-22T01:09:42;10.10;99.90
56308;DHT22;42217;50.422;7.210;2024-03-22T01:12:10;10.20;99.90
56308;DHT22;42217;50.422;7.210;2024-03-22T01:14:36;10.20;99.90
56308;DHT22;42217;50.422;7.210;2024-03-22T01:17:01;10.20;99.90
56308;DHT22;42217;50.422;7.210;2024-03-22T01:19:27;10.10;99.90
56308;DHT22;42217;50.422;7.210;2024-03-22T01:21:53;10.20;99.90
56308;DHT22;42217;50.422;7.210;2024-03-22T01:24:19;10.10;99.90
56308;DHT22;42217;50.422;7.210;2024-03-22T01:26:44;10.20;99.90
56308;DHT22;42217;50.422;7.210;2024-03-22T01:29:10;10.20;99.90
56308;DHT22;42217;50.422;7.210;2024-03-22T01:31:36;10.20;99.90
56308;DHT22;42217;50.422;7.210;2024-03-22T01:34:01;10.30;99.90
56308;DHT22;42217;50.422;7.210;2024-03-22T01:36:27;10.30;99.90
56308;DHT22;42217;50.422;7.210;2024-03-22T01:38:52;10.30;99.90
56308;DHT22;42217;50.422;7.210;2024-03-22T01:41:18;10.20;99.90
56308;DHT22;42217;50.422;7.210;2024-03-22T01:43:44;10.20;99.90
56308;DHT22;42217;50.422;7.210;2024-03-22T01:46:09;10.10;99.90
56308;DHT22;42217;50.422;7.210;2024-03-22T01:48:35;10.00;99.90
56308;DHT22;42217;50.422;7.210;2024-03-22T01:51:02;10.00;99.90
56308;DHT22;42217;50.422;7.210;2024-03-22T01:53:29;9.90;99.90
56308;DHT22;42217;50.422;7.210;2024-03-22T01:55:55;9.90;99.90
56308;DHT22;42217;50.422;7.210;2024-03-22T01:58:21;9.90;99.90
56308;DHT22;42217;50.422;7.210;2024-03-22T02:00:47;9.80;99.90
56308;DHT22;42217;50.422;7.210;2024-03-22T02:03:13;9.70;99.90
56308;DHT22;42217;50.422;7.210;2024-03-22T02:05:39;9.70;99.90
56308;DHT22;42217;50.422;7.210;2024-03-22T02:08:05;9.80;99.90
56308;DHT22;42217;50.422;7.210;2024-03-22T02:10:30;9.80;99.90
56308;DHT22;42217;50.422;7.210;2024-03-22T02:12:56;9.80;99.90
56308;DHT22;42217;50.422;7.210;2024-03-22T02:15:22;9.80;99.90
56308;DHT22;42217;50.422;7.210;2024-03-22T02:17:48;9.80;99.90
56308;DHT22;42217;50.422;7.210;2024-03-22T02:20:13;9.80;99.90
56308;DHT22;42217;50.422;7.210;2024-03-22T02:22:39;9.80;99.90
56308;DHT22;42217;50.422;7.210;2024-03-22T02:25:05;9.90;99.90
56308;DHT22;42217;50.422;7.210;2024-03-22T02:27:30;9.90;99.90
56308;DHT22;42217;50.422;7.210;2024-03-22T02:29:56;10.00;99.90
56308;DHT22;42217;50.422;7.210;2024-03-22T02:32:22;10.00;99.90
56308;DHT22;42217;50.422;7.210;2024-03-22T02:34:48;10.00;99.90
56308;DHT22;42217;50.422;7.210;2024-03-22T02:37:13;10.10;99.90
56308;DHT22;42217;50.422;7.210;2024-03-22T02:39:39;10.10;99.90
56308;DHT22;42217;50.422;7.210;2024-03-22T02:42:05;10.10;99.90
56308;DHT22;42217;50.422;7.210;2024-03-22T02:44:30;10.10;99.90
56308;DHT22;42217;50.422;7.210;2024-03-22T02:46:56;10.10;99.90
56308;DHT22;42217;50.422;7.210;2024-03-22T02:49:22;10.10;99.90
56308;DHT22;42217;50.422;7.210;2024-03-22T02:51:47;10.10;99.90
56308;DHT22;42217;50.422;7.210;2024-03-22T02:54:14;10.20;99.90
56308;DHT22;42217;50.422;7.210;2024-03-22T02:56:39;10.20;99.90
56308;DHT22;42217;50.422;7.210;2024-03-22T02:59:05;10.20;99.90
56308;DHT22;42217;50.422;7.210;2024-03-22T03:01:31;10.20;99.90
56308;DHT22;42217;50.422;7.210;2024-03-22T03:03:56;10.20;99.90
56308;DHT22;42217;50.422;7.210;2024-03-22T03:06:22;10.30;99.90
56308;DHT22;42217;50.422;7.210;2024-03-22T03:08:47;10.30;99.90
56308;DHT22;42217;50.422;7.210;2024-03-22T03:11:14;10.40;99.90
56308;DHT22;42217;50.422;7.210;2024-03-22T03:13:40;10.40;99.90
56308;DHT22;42217;50.422;7.210;2024-03-22T03:16:06;10.30;99.90
56308;DHT22;42217;50.422;7.210;2024-03-22T03:18:31;10.40;99.90
56308;DHT22;42217;50.422;7.210;2024-03-22T03:20:57;10.30;99.90
56308;DHT22;42217;50.422;7.210;2024-03-22T03:23:23;10.30;99.90
56308;DHT22;42217;50.422;7.210;2024-03-22T03:25:48;10.30;99.90
56308;DHT22;42217;50.422;7.210;2024-03-22T03:28:14;10.30;99.90
56308;DHT22;42217;50.422;7.210;2024-03-22T03:30:40;10.30;99.90
56308;DHT22;42217;50.422;7.210;2024-03-22T03:33:05;10.30;99.90
56308;DHT22;42217;50.422;7.210;2024-03-22T03:35:31;10.30;99.90
56308;DHT22;42217;50.422;7.210;2024-03-22T03:37:56;10.30;99.90
56308;DHT22;42217;50.422;7.210;2024-03-22T03:40:22;10.30;99.90
56308;DHT22;42217;50.422;7.210;2024-03-22T03:42:50;10.30;99.90
56308;DHT22;42217;50.422;7.210;2024-03-22T03:45:16;10.30;99.90
56308;DHT22;42217;50.422;7.210;2024-03-22T03:47:42;10.30;99.90
56308;DHT22;42217;50.422;7.210;2024-03-22T03:50:08;10.30;99.90
56308;DHT22;42217;50.422;7.210;2024-03-22T03:52:34;10.30;99.90
56308;DHT22;42217;50.422;7.210;2024-03-22T03:54:59;10.30;99.90
56308;DHT22;42217;50.422;7.210;2024-03-22T03:57:25;10.30;99.90
56308;DHT22;42217;50.422;7.210;2024-03-22T03:59:51;10.40;99.90
56308;DHT22;42217;50.422;7.210;2024-03-22T04:02:17;10.40;99.90
56308;DHT22;42217;50.422;7.210;2024-03-22T04:04:43;10.40;99.90
56308;DHT22;42217;50.422;7.210;2024-03-22T04:07:08;10.60;99.90
56308;DHT22;42217;50.422;7.210;2024-03-22T04:09:34;10.50;99.90
56308;DHT22;42217;50.422;7.210;2024-03-22T04:12:00;10.50;99.90
56308;DHT22;42217;50.422;7.210;2024-03-22T04:14:26;10.40;99.90
56308;DHT22;42217;50.422;7.210;2024-03-22T04:16:52;10.40;99.90
56308;DHT22;42217;50.422;7.210;2024-03-22T04:19:20;10.20;99.90
56308;DHT22;42217;50.422;7.210;2024-03-22T04:21:46;10.10;99.90
56308;DHT22;42217;50.422;7.210;2024-03-22T04:24:12;10.10;99.90
56308;DHT22;42217;50.422;7.210;2024-03-22T04:26:37;10.30;99.90
56308;DHT22;42217;50.422;7.210;2024-03-22T04:29:03;10.20;99.90
56308;DHT22;42217;50.422;7.210;2024-03-22T04:31:29;10.30;99.90
56308;DHT22;42217;50.422;7.210;2024-03-22T04:33:54;10.50;99.90
56308;DHT22;42217;50.422;7.210;2024-03-22T04:36:20;10.60;99.90
56308;DHT22;42217;50.422;7.210;2024-03-22T04:38:46;10.60;99.90
56308;DHT22;42217;50.422;7.210;2024-03-22T04:41:11;10.70;99.90
56308;DHT22;42217;50.422;7.210;2024-03-22T04:43:37;10.60;99.90
56308;DHT22;42217;50.422;7.210;2024-03-22T04:46:03;10.70;99.90
56308;DHT22;42217;50.422;7.210;2024-03-22T04:48:29;10.80;99.90
56308;DHT22;42217;50.422;7.210;2024-03-22T04:50:56;10.80;99.90
56308;DHT22;42217;50.422;7.210;2024-03-22T04:53:21;10.80;99.90
56308;DHT22;42217;50.422;7.210;2024-03-22T04:55:48;10.70;99.90
56308;DHT22;42217;50.422;7.210;2024-03-22T04:58:14;10.70;99.90
56308;DHT22;42217;50.422;7.210;2024-03-22T05:00:44;10.60;99.90
56308;DHT22;42217;50.422;7.210;2024-03-22T05:03:10;10.70;99.90
56308;DHT22;42217;50.422;7.210;2024-03-22T05:05:36;10.70;99.90
56308;DHT22;42217;50.422;7.210;2024-03-22T05:08:02;10.70;99.90
56308;DHT22;42217;50.422;7.210;2024-03-22T05:10:29;10.70;99.90
56308;DHT22;42217;50.422;7.210;2024-03-22T05:12:55;10.70;99.90
56308;DHT22;42217;50.422;7.210;2024-03-22T05:15:21;10.80;99.90
56308;DHT22;42217;50.422;7.210;2024-03-22T05:17:47;10.80;99.90
56308;DHT22;42217;50.422;7.210;2024-03-22T05:20:12;10.90;99.90
56308;DHT22;42217;50.422;7.210;2024-03-22T05:22:38;10.90;99.90
56308;DHT22;42217;50.422;7.210;2024-03-22T05:25:04;11.00;99.90
56308;DHT22;42217;50.422;7.210;2024-03-22T05:27:33;11.00;99.90
56308;DHT22;42217;50.422;7.210;2024-03-22T05:29:59;10.90;99.90
56308;DHT22;42217;50.422;7.210;2024-03-22T05:32:25;10.90;99.90
56308;DHT22;42217;50.422;7.210;2024-03-22T05:34:54;10.90;99.90
56308;DHT22;42217;50.422;7.210;2024-03-22T05:37:20;10.90;99.90
56308;DHT22;42217;50.422;7.210;2024-03-22T05:39:46;11.00;99.90
56308;DHT22;42217;50.422;7.210;2024-03-22T05:42:11;11.00;99.90
56308;DHT22;42217;50.422;7.210;2024-03-22T05:44:37;11.10;99.90
56308;DHT22;42217;50.422;7.210;2024-03-22T05:47:02;11.20;99.90
56308;DHT22;42217;50.422;7.210;2024-03-22T05:49:28;11.20;99.90
56308;DHT22;42217;50.422;7.210;2024-03-22T05:51:55;11.20;99.90
56308;DHT22;42217;50.422;7.210;2024-03-22T05:54:20;11.30;99.90
56308;DHT22;42217;50.422;7.210;2024-03-22T05:56:46;11.30;99.90
56308;DHT22;42217;50.422;7.210;2024-03-22T05:59:12;11.30;99.90
56308;DHT22;42217;50.422;7.210;2024-03-22T06:01:38;11.40;99.90
56308;DHT22;42217;50.422;7.210;2024-03-22T06:04:04;11.40;99.90
56308;DHT22;42217;50.422;7.210;2024-03-22T06:06:35;11.40;99.90
56308;DHT22;42217;50.422;7.210;2024-03-22T06:09:04;11.40;99.90
56308;DHT22;42217;50.422;7.210;2024-03-22T06:11:30;11.40;99.90
56308;DHT22;42217;50.422;7.210;2024-03-22T06:13:56;11.50;99.90
56308;DHT22;42217;50.422;7.210;2024-03-22T06:16:23;11.50;99.90
56308;DHT22;42217;50.422;7.210;2024-03-22T06:18:49;11.50;99.90
56308;DHT22;42217;50.422;7.210;2024-03-22T06:21:15;11.50;99.90
56308;DHT22;42217;50.422;7.210;2024-03-22T06:23:40;11.60;99.90
56308;DHT22;42217;50.422;7.210;2024-03-22T06:26:07;11.70;99.90
56308;DHT22;42217;50.422;7.210;2024-03-22T06:28:32;11.90;99.90
56308;DHT22;42217;50.422;7.210;2024-03-22T06:30:58;11.90;99.90
56308;DHT22;42217;50.422;7.210;2024-03-22T06:33:24;11.90;99.90
56308;DHT22;42217;50.422;7.210;2024-03-22T06:35:49;12.10;99.90
56308;DHT22;42217;50.422;7.210;2024-03-22T06:38:15;12.20;99.90
56308;DHT22;42217;50.422;7.210;2024-03-22T06:40:41;12.20;99.90
56308;DHT22;42217;50.422;7.210;2024-03-22T06:43:07;12.20;99.90
56308;DHT22;42217;50.422;7.210;2024-03-22T06:45:32;12.10;99.90
56308;DHT22;42217;50.422;7.210;2024-03-22T06:47:58;12.20;99.90
56308;DHT22;42217;50.422;7.210;2024-03-22T06:50:24;12.20;99.90
56308;DHT22;42217;50.422;7.210;2024-03-22T06:52:50;12.20;99.90
56308;DHT22;42217;50.422;7.210;2024-03-22T06:55:17;12.20;99.90
56308;DHT22;42217;50.422;7.210;2024-03-22T06:57:44;12.10;99.90
56308;DHT22;42217;50.422;7.210;2024-03-22T07:00:10;12.10;99.90
56308;DHT22;42217;50.422;7.210;2024-03-22T07:02:36;12.00;99.90
56308;DHT22;42217;50.422;7.210;2024-03-22T07:05:02;12.00;99.90
56308;DHT22;42217;50.422;7.210;2024-03-22T07:07:29;12.00;99.90
56308;DHT22;42217;50.422;7.210;2024-03-22T07:09:56;12.00;99.90
56308;DHT22;42217;50.422;7.210;2024-03-22T07:12:22;12.00;99.90
56308;DHT22;42217;50.422;7.210;2024-03-22T07:14:48;12.10;99.90
56308;DHT22;42217;50.422;7.210;2024-03-22T07:17:13;12.20;99.90
56308;DHT22;42217;50.422;7.210;2024-03-22T07:19:40;12.20;99.90
56308;DHT22;42217;50.422;7.210;2024-03-22T07:22:06;12.30;99.90
56308;DHT22;42217;50.422;7.210;2024-03-22T07:24:32;12.40;99.90
56308;DHT22;42217;50.422;7.210;2024-03-22T07:26:58;12.50;99.90
56308;DHT22;42217;50.422;7.210;2024-03-22T07:29:23;12.70;99.90
56308;DHT22;42217;50.422;7.210;2024-03-22T07:31:49;12.90;99.90
56308;DHT22;42217;50.422;7.210;2024-03-22T07:34:15;13.10;99.90
56308;DHT22;42217;50.422;7.210;2024-03-22T07:36:41;13.20;99.90
56308;DHT22;42217;50.422;7.210;2024-03-22T07:39:06;13.20;99.90
56308;DHT22;42217;50.422;7.210;2024-03-22T07:41:33;13.40;99.90
56308;DHT22;42217;50.422;7.210;2024-03-22T07:44:00;13.50;99.90
56308;DHT22;42217;50.422;7.210;2024-03-22T07:46:26;13.60;99.90
56308;DHT22;42217;50.422;7.210;2024-03-22T07:48:52;13.70;99.90
56308;DHT22;42217;50.422;7.210;2024-03-22T07:51:18;13.80;99.90
56308;DHT22;42217;50.422;7.210;2024-03-22T07:53:44;14.00;99.90
56308;DHT22;42217;50.422;7.210;2024-03-22T07:56:09;14.10;99.90
56308;DHT22;42217;50.422;7.210;2024-03-22T07:58:35;14.10;99.90
56308;DHT22;42217;50.422;7.210;2024-03-22T08:01:01;14.20;99.90
56308;DHT22;42217;50.422;7.210;2024-03-22T08:03:27;14.20;99.90
56308;DHT22;42217;50.422;7.210;2024-03-22T08:05:53;14.20;99.90
56308;DHT22;42217;50.422;7.210;2024-03-22T08:08:19;14.40;99.90
56308;DHT22;42217;50.422;7.210;2024-03-22T08:10:44;14.40;99.90
56308;DHT22;42217;50.422;7.210;2024-03-22T08:13:10;14.30;99.90
56308;DHT22;42217;50.422;7.210;2024-03-22T08:15:36;14.40;99.90
56308;DHT22;42217;50.422;7.210;2024-03-22T08:18:02;14.40;99.90
56308;DHT22;42217;50.422;7.210;2024-03-22T08:20:28;14.60;99.90
56308;DHT22;42217;50.422;7.210;2024-03-22T08:22:54;14.80;99.90
56308;DHT22;42217;50.422;7.210;2024-03-22T08:25:19;15.00;99.90
56308;DHT22;42217;50.422;7.210;2024-03-22T08:27:46;15.10;99.90
56308;DHT22;42217;50.422;7.210;2024-03-22T08:30:13;15.10;99.90
56308;DHT22;42217;50.422;7.210;2024-03-22T08:32:39;15.30;99.90
56308;DHT22;42217;50.422;7.210;2024-03-22T08:35:05;15.30;99.90
56308;DHT22;42217;50.422;7.210;2024-03-22T08:37:33;15.20;99.90
56308;DHT22;42217;50.422;7.210;2024-03-22T08:39:58;15.30;99.90
56308;DHT22;42217;50.422;7.210;2024-03-22T08:42:24;15.40;99.90
56308;DHT22;42217;50.422;7.210;2024-03-22T08:44:50;15.60;99.90
56308;DHT22;42217;50.422;7.210;2024-03-22T08:47:15;16.00;99.90
56308;DHT22;42217;50.422;7.210;2024-03-22T08:49:41;16.50;99.90
56308;DHT22;42217;50.422;7.210;2024-03-22T08:52:09;16.90;99.90
56308;DHT22;42217;50.422;7.210;2024-03-22T08:54:34;17.40;99.90
56308;DHT22;42217;50.422;7.210;2024-03-22T08:57:00;17.50;99.90
56308;DHT22;42217;50.422;7.210;2024-03-22T08:59:27;17.10;99.90
56308;DHT22;42217;50.422;7.210;2024-03-22T09:01:53;16.90;99.90
56308;DHT22;42217;50.422;7.210;2024-03-22T09:04:19;16.90;99.90
56308;DHT22;42217;50.422;7.210;2024-03-22T09:06:45;16.80;99.90
56308;DHT22;42217;50.422;7.210;2024-03-22T09:09:11;16.60;99.90
56308;DHT22;42217;50.422;7.210;2024-03-22T09:11:37;16.50;99.90
56308;DHT22;42217;50.422;7.210;2024-03-22T09:14:03;16.40;99.90
56308;DHT22;42217;50.422;7.210;2024-03-22T09:16:29;16.40;99.90
56308;DHT22;42217;50.422;7.210;2024-03-22T09:18:55;16.40;99.90
56308;DHT22;42217;50.422;7.210;2024-03-22T09:21:20;16.50;99.90
56308;DHT22;42217;50.422;7.210;2024-03-22T09:23:46;16.70;99.90
56308;DHT22;42217;50.422;7.210;2024-03-22T09:26:12;16.80;99.90
56308;DHT22;42217;50.422;7.210;2024-03-22T09:28:37;16.70;99.90
56308;DHT22;42217;50.422;7.210;2024-03-22T09:31:07;16.60;99.90
56308;DHT22;42217;50.422;7.210;2024-03-22T09:33:33;16.50;99.90
56308;DHT22;42217;50.422;7.210;2024-03-22T09:35:59;16.30;99.90
56308;DHT22;42217;50.422;7.210;2024-03-22T09:38:25;16.30;99.90
56308;DHT22;42217;50.422;7.210;2024-03-22T09:40:50;16.30;99.90
56308;DHT22;42217;50.422;7.210;2024-03-22T09:43:23;16.00;99.90
56308;DHT22;42217;50.422;7.210;2024-03-22T09:45:52;15.90;99.90
56308;DHT22;42217;50.422;7.210;2024-03-22T09:48:18;15.80;99.90
56308;DHT22;42217;50.422;7.210;2024-03-22T09:50:48;15.70;99.90
56308;DHT22;42217;50.422;7.210;2024-03-22T09:53:18;15.60;99.90
56308;DHT22;42217;50.422;7.210;2024-03-22T09:55:46;15.50;99.90
56308;DHT22;42217;50.422;7.210;2024-03-22T09:58:12;15.40;99.90
56308;DHT22;42217;50.422;7.210;2024-03-22T10:00:38;15.50;99.90
56308;DHT22;42217;50.422;7.210;2024-03-22T10:03:04;15.50;99.90
56308;DHT22;42217;50.422;7.210;2024-03-22T10:05:31;15.70;99.90
56308;DHT22;42217;50.422;7.210;2024-03-22T10:07:57;15.80;99.90
56308;DHT22;42217;50.422;7.210;2024-03-22T10:10:23;15.70;99.90
56308;DHT22;42217;50.422;7.210;2024-03-22T10:12:49;15.60;99.90
56308;DHT22;42217;50.422;7.210;2024-03-22T10:15:15;15.70;99.90
56308;DHT22;42217;50.422;7.210;2024-03-22T10:17:41;15.90;99.90
56308;DHT22;42217;50.422;7.210;2024-03-22T10:20:07;16.20;99.90
56308;DHT22;42217;50.422;7.210;2024-03-22T10:22:42;16.40;99.90
56308;DHT22;42217;50.422;7.210;2024-03-22T10:25:09;16.40;99.90
56308;DHT22;42217;50.422;7.210;2024-03-22T10:27:34;16.60;99.90
56308;DHT22;42217;50.422;7.210;2024-03-22T10:30:06;17.00;99.90
56308;DHT22;42217;50.422;7.210;2024-03-22T10:32:33;17.40;99.90
56308;DHT22;42217;50.422;7.210;2024-03-22T10:35:02;17.40;99.90
56308;DHT22;42217;50.422;7.210;2024-03-22T10:37:31;17.20;99.90
56308;DHT22;42217;50.422;7.210;2024-03-22T10:39:58;17.40;99.90
56308;DHT22;42217;50.422;7.210;2024-03-22T10:42:26;17.20;99.90
56308;DHT22;42217;50.422;7.210;2024-03-22T10:44:52;16.80;99.90
56308;DHT22;42217;50.422;7.210;2024-03-22T10:47:18;16.90;99.90
56308;DHT22;42217;50.422;7.210;2024-03-22T10:49:48;17.10;99.90
56308;DHT22;42217;50.422;7.210;2024-03-22T10:52:16;16.90;99.90
56308;DHT22;42217;50.422;7.210;2024-03-22T10:54:44;16.80;99.90
56308;DHT22;42217;50.422;7.210;2024-03-22T10:57:13;16.80;99.90
56308;DHT22;42217;50.422;7.210;2024-03-22T10:59:41;16.60;99.90
56308;DHT22;42217;50.422;7.210;2024-03-22T11:02:10;16.50;99.90
56308;DHT22;42217;50.422;7.210;2024-03-22T11:04:36;16.70;99.90
56308;DHT22;42217;50.422;7.210;2024-03-22T11:07:02;16.80;99.90
56308;DHT22;42217;50.422;7.210;2024-03-22T11:09:29;16.80;99.90
56308;DHT22;42217;50.422;7.210;2024-03-22T11:11:56;17.00;99.90
56308;DHT22;42217;50.422;7.210;2024-03-22T11:14:25;16.70;99.90
56308;DHT22;42217;50.422;7.210;2024-03-22T11:16:51;16.40;99.90
56308;DHT22;42217;50.422;7.210;2024-03-22T11:19:18;16.40;99.90
56308;DHT22;42217;50.422;7.210;2024-03-22T11:21:44;16.40;99.90
56308;DHT22;42217;50.422;7.210;2024-03-22T11:24:09;16.50;99.90
56308;DHT22;42217;50.422;7.210;2024-03-22T11:26:37;17.10;99.90
56308;DHT22;42217;50.422;7.210;2024-03-22T11:29:03;17.70;99.90
56308;DHT22;42217;50.422;7.210;2024-03-22T11:31:29;18.10;99.90
56308;DHT22;42217;50.422;7.210;2024-03-22T11:33:55;18.20;99.90
56308;DHT22;42217;50.422;7.210;2024-03-22T11:36:22;18.00;99.90
56308;DHT22;42217;50.422;7.210;2024-03-22T11:38:48;17.70;99.90
56308;DHT22;42217;50.422;7.210;2024-03-22T11:41:24;17.50;99.90
56308;DHT22;42217;50.422;7.210;2024-03-22T11:43:52;17.50;99.90
56308;DHT22;42217;50.422;7.210;2024-03-22T11:46:18;17.20;99.90
56308;DHT22;42217;50.422;7.210;2024-03-22T11:48:51;17.30;99.90
56308;DHT22;42217;50.422;7.210;2024-03-22T11:51:17;17.50;99.90
56308;DHT22;42217;50.422;7.210;2024-03-22T11:53:52;17.50;99.90
56308;DHT22;42217;50.422;7.210;2024-03-22T11:56:19;17.30;99.90
56308;DHT22;42217;50.422;7.210;2024-03-22T11:58:46;17.00;99.90
56308;DHT22;42217;50.422;7.210;2024-03-22T12:01:14;16.60;99.90
56308;DHT22;42217;50.422;7.210;2024-03-22T12:03:40;16.50;99.90
56308;DHT22;42217;50.422;7.210;2024-03-22T12:06:09;16.50;99.90
56308;DHT22;42217;50.422;7.210;2024-03-22T12:08:37;16.50;99.90
56308;DHT22;42217;50.422;7.210;2024-03-22T12:11:04;16.20;99.90
56308;DHT22;42217;50.422;7.210;2024-03-22T12:13:29;15.90;99.90
56308;DHT22;42217;50.422;7.210;2024-03-22T12:15:55;16.10;99.90
56308;DHT22;42217;50.422;7.210;2024-03-22T12:18:21;16.10;99.90
56308;DHT22;42217;50.422;7.210;2024-03-22T12:20:46;16.10;99.90
56308;DHT22;42217;50.422;7.210;2024-03-22T12:23:12;16.00;99.90
56308;DHT22;42217;50.422;7.210;2024-03-22T12:25:38;15.90;99.90
56308;DHT22;42217;50.422;7.210;2024-03-22T12:28:03;15.90;99.90
56308;DHT22;42217;50.422;7.210;2024-03-22T12:30:30;16.00;99.90
56308;DHT22;42217;50.422;7.210;2024-03-22T12:32:56;16.00;99.90
56308;DHT22;42217;50.422;7.210;2024-03-22T12:35:21;15.50;99.90
56308;DHT22;42217;50.422;7.210;2024-03-22T12:37:47;15.30;99.90
56308;DHT22;42217;50.422;7.210;2024-03-22T12:40:13;15.00;99.90
56308;DHT22;42217;50.422;7.210;2024-03-22T12:42:40;15.00;99.90
56308;DHT22;42217;50.422;7.210;2024-03-22T12:45:06;15.10;99.90
56308;DHT22;42217;50.422;7.210;2024-03-22T12:47:33;15.10;99.90
56308;DHT22;42217;50.422;7.210;2024-03-22T12:49:58;15.20;99.90
56308;DHT22;42217;50.422;7.210;2024-03-22T12:52:24;15.00;99.90
56308;DHT22;42217;50.422;7.210;2024-03-22T12:54:50;15.00;99.90
56308;DHT22;42217;50.422;7.210;2024-03-22T12:57:15;15.10;99.90
56308;DHT22;42217;50.422;7.210;2024-03-22T12:59:41;15.10;99.90
56308;DHT22;42217;50.422;7.210;2024-03-22T13:02:07;15.30;99.90
56308;DHT22;42217;50.422;7.210;2024-03-22T13:04:33;15.20;99.90
56308;DHT22;42217;50.422;7.210;2024-03-22T13:06:59;15.20;99.90
56308;DHT22;42217;50.422;7.210;2024-03-22T13:09:24;15.20;99.90
56308;DHT22;42217;50.422;7.210;2024-03-22T13:11:50;15.20;99.90
56308;DHT22;42217;50.422;7.210;2024-03-22T13:14:16;15.40;99.90
56308;DHT22;42217;50.422;7.210;2024-03-22T13:16:41;15.50;99.90
56308;DHT22;42217;50.422;7.210;2024-03-22T13:19:07;15.60;99.90
56308;DHT22;42217;50.422;7.210;2024-03-22T13:21:39;15.50;99.90
56308;DHT22;42217;50.422;7.210;2024-03-22T13:24:05;15.50;99.90
56308;DHT22;42217;50.422;7.210;2024-03-22T13:26:31;15.70;99.90
56308;DHT22;42217;50.422;7.210;2024-03-22T13:28:56;16.00;99.90
56308;DHT22;42217;50.422;7.210;2024-03-22T13:31:22;16.30;99.90
56308;DHT22;42217;50.422;7.210;2024-03-22T13:33:48;17.00;99.90
56308;DHT22;42217;50.422;7.210;2024-03-22T13:36:13;17.40;99.90
56308;DHT22;42217;50.422;7.210;2024-03-22T13:38:39;17.90;99.90
56308;DHT22;42217;50.422;7.210;2024-03-22T13:41:05;18.00;99.90
56308;DHT22;42217;50.422;7.210;2024-03-22T13:43:31;17.60;99.90
56308;DHT22;42217;50.422;7.210;2024-03-22T13:45:57;17.10;99.90
56308;DHT22;42217;50.422;7.210;2024-03-22T13:48:24;16.90;99.90
56308;DHT22;42217;50.422;7.210;2024-03-22T13:50:52;17.00;99.90
56308;DHT22;42217;50.422;7.210;2024-03-22T13:53:18;17.00;99.90
56308;DHT22;42217;50.422;7.210;2024-03-22T13:55:44;17.40;99.90
56308;DHT22;42217;50.422;7.210;2024-03-22T13:58:09;17.80;99.90
56308;DHT22;42217;50.422;7.210;2024-03-22T14:00:35;18.20;99.90
56308;DHT22;42217;50.422;7.210;2024-03-22T14:03:01;18.90;99.90
56308;DHT22;42217;50.422;7.210;2024-03-22T14:05:27;19.10;99.90
56308;DHT22;42217;50.422;7.210;2024-03-22T14:07:53;19.30;99.90
56308;DHT22;42217;50.422;7.210;2024-03-22T14:10:18;19.70;99.90
56308;DHT22;42217;50.422;7.210;2024-03-22T14:12:45;20.20;99.00
56308;DHT22;42217;50.422;7.210;2024-03-22T14:15:11;20.90;98.00
56308;DHT22;42217;50.422;7.210;2024-03-22T14:17:37;20.60;97.50
56308;DHT22;42217;50.422;7.210;2024-03-22T14:20:03;19.90;98.40
56308;DHT22;42217;50.422;7.210;2024-03-22T14:22:35;19.50;98.40
56308;DHT22;42217;50.422;7.210;2024-03-22T14:25:01;19.30;98.00
56308;DHT22;42217;50.422;7.210;2024-03-22T14:27:28;19.00;97.90
56308;DHT22;42217;50.422;7.210;2024-03-22T14:29:53;18.90;98.60
56308;DHT22;42217;50.422;7.210;2024-03-22T14:32:19;19.20;98.00
56308;DHT22;42217;50.422;7.210;2024-03-22T14:34:45;19.00;98.00
56308;DHT22;42217;50.422;7.210;2024-03-22T14:37:11;19.10;97.90
56308;DHT22;42217;50.422;7.210;2024-03-22T14:39:38;19.30;96.60
56308;DHT22;42217;50.422;7.210;2024-03-22T14:42:03;18.90;96.90
56308;DHT22;42217;50.422;7.210;2024-03-22T14:44:31;18.30;97.30
56308;DHT22;42217;50.422;7.210;2024-03-22T14:46:56;18.30;98.30
56308;DHT22;42217;50.422;7.210;2024-03-22T14:49:24;18.60;98.30
56308;DHT22;42217;50.422;7.210;2024-03-22T14:51:50;18.40;98.10
56308;DHT22;42217;50.422;7.210;2024-03-22T14:54:16;18.50;98.30
56308;DHT22;42217;50.422;7.210;2024-03-22T14:56:42;18.80;98.20
56308;DHT22;42217;50.422;7.210;2024-03-22T14:59:08;18.70;97.40
56308;DHT22;42217;50.422;7.210;2024-03-22T15:01:33;18.90;97.50
56308;DHT22;42217;50.422;7.210;2024-03-22T15:04:00;19.70;96.00
56308;DHT22;42217;50.422;7.210;2024-03-22T15:06:26;20.20;95.40
56308;DHT22;42217;50.422;7.210;2024-03-22T15:08:55;19.80;95.10
56308;DHT22;42217;50.422;7.210;2024-03-22T15:11:20;19.70;95.50
56308;DHT22;42217;50.422;7.210;2024-03-22T15:13:47;19.10;96.00
56308;DHT22;42217;50.422;7.210;2024-03-22T15:16:13;19.20;97.00
56308;DHT22;42217;50.422;7.210;2024-03-22T15:18:39;21.00;95.20
56308;DHT22;42217;50.422;7.210;2024-03-22T15:21:07;23.00;94.40
56308;DHT22;42217;50.422;7.210;2024-03-22T15:23:33;25.20;86.60
56308;DHT22;42217;50.422;7.210;2024-03-22T15:25:59;25.20;79.60